< Typhoon 196114 1961 Season Typhoon 196116 >
Typhoon 196115 (KATHY)
General InformationTrack Information on Google Maps || Disaster Info.ResourceGoogle EarthGE AnimationAtom FeedGeoJSON
Detalied Best Track (Time Zone = UTC)
Year Month Day Hour Lat. Long. Pressure (hPa) Wind (kt) Class Image Chart
1961 8 13 18 16.3 141.8 1002 0 2 -- Chart
1961 8 14 00 16.8 141.1 1002 0 2 -- Chart
1961 8 14 06 17.5 140.5 1000 0 2 -- Chart
1961 8 14 12 18.5 140.4 1000 0 2 -- Chart
1961 8 14 18 19.7 140.5 1000 0 2 -- Chart
1961 8 15 00 21.0 140.9 998 0 2 -- Chart
1961 8 15 06 22.8 140.8 996 0 2 -- Chart
1961 8 15 12 24.7 140.2 994 0 9 -- Chart
1961 8 15 18 25.8 138.6 994 0 9 -- Chart
1961 8 16 00 27.0 137.9 995 0 9 -- Chart
1961 8 16 06 28.1 137.2 995 0 9 -- Chart
1961 8 16 12 29.4 135.7 990 0 9 -- Chart
1961 8 16 18 30.0 134.5 990 0 9 -- Chart
1961 8 17 00 31.0 133.5 990 0 9 -- Chart
1961 8 17 06 31.6 132.9 988 0 9 -- Chart
1961 8 17 12 31.6 131.9 990 0 9 -- Chart
1961 8 17 18 32.1 131.6 1000 0 2 -- Chart
1961 8 18 00 32.2 131.2 1006 0 2 -- Chart
1961 8 18 06 32.6 130.5 1006 0 2 -- Chart
1961 8 18 12 32.9 129.6 1006 0 2 -- Chart
1961 8 18 18 33.0 129.0 1008 0 2 -- Chart
Japan Meteorological Agency Best Track Data | Correction Date : 1989-06-01
< Typhoon 196114 1961 Season Typhoon 196116 >

Help